Time;durP1;ratioP1;P1;durP2;ratioP2;P2;SDS_P1;SDS_P2;PMS_P1;PMS_P2;Temp;Humidity;BMP_temperature;BMP_pressure;BME280_temperature;BME280_humidity;BME280_pressure;Samples;Min_cycle;Max_cycle;Signal;HPM_P1;HPM_P2
2024/04/14 00:02:37;;;;;;;7.38;4.10;;;;;;;17.40;92.09;100383.84;11161777;26;20098;-32
2024/04/14 00:07:38;;;;;;;7.80;4.60;;;;;;;17.25;94.21;100395.22;11162961;26;19997;-32
2024/04/14 00:12:39;;;;;;;7.30;3.67;;;;;;;17.12;83.63;100393.41;11155884;26;19996;-31
2024/04/14 00:17:40;;;;;;;8.27;3.80;;;;;;;16.96;76.16;100415.31;11168133;26;20421;-31
2024/04/14 00:22:41;;;;;;;4.85;3.28;;;;;;;16.79;76.76;100408.16;11164904;26;19997;-32
2024/04/14 00:27:43;;;;;;;5.28;3.50;;;;;;;16.64;79.90;100398.34;11159394;26;20000;-32
2024/04/14 00:32:44;;;;;;;8.95;4.30;;;;;;;16.40;84.89;100401.69;11167111;26;20828;-31
2024/04/14 00:37:45;;;;;;;7.28;4.30;;;;;;;16.33;88.63;100401.59;11165484;26;20027;-31
2024/04/14 00:42:46;;;;;;;8.43;4.40;;;;;;;16.10;88.68;100410.19;11165818;26;20413;-31
2024/04/14 00:47:47;;;;;;;9.88;4.70;;;;;;;16.10;89.27;100414.59;11163250;26;20009;-32
2024/04/14 00:52:49;;;;;;;7.32;4.10;;;;;;;15.88;90.84;100418.75;11159756;26;20019;-31
2024/04/14 00:57:50;;;;;;;7.63;4.43;;;;;;;15.82;90.85;100419.56;11159886;26;20024;-31
2024/04/14 01:02:55;;;;;;;10.45;4.10;;;;;;;15.63;92.48;100431.59;11156787;26;20001;-31
2024/04/14 01:07:56;;;;;;;6.53;4.40;;;;;;;15.44;94.11;100433.13;11158937;26;20028;-32
2024/04/14 01:12:57;;;;;;;8.07;3.90;;;;;;;15.26;94.39;100435.53;11158483;26;20000;-32
2024/04/14 01:17:58;;;;;;;6.65;4.00;;;;;;;15.11;96.79;100444.09;11164245;26;20472;-32
2024/04/14 01:22:59;;;;;;;9.05;4.30;;;;;;;15.08;96.98;100436.13;11158016;26;20011;-32
2024/04/14 01:28:01;;;;;;;7.78;4.15;;;;;;;15.04;97.50;100451.00;11165108;26;20031;-32
2024/04/14 01:33:02;;;;;;;8.65;4.45;;;;;;;14.83;99.49;100458.56;11158345;26;20018;-32
2024/04/14 01:38:04;;;;;;;10.77;4.60;;;;;;;14.75;99.52;100458.47;11160333;26;20329;-32
2024/04/14 01:43:05;;;;;;;9.38;3.95;;;;;;;14.68;98.41;100466.22;11164446;26;20069;-32
2024/04/14 01:48:07;;;;;;;9.02;3.95;;;;;;;14.59;99.55;100464.34;11158815;26;20349;-32
2024/04/14 01:53:09;;;;;;;7.28;3.83;;;;;;;14.50;100.00;100467.66;11159099;26;20011;-32
2024/04/14 01:58:10;;;;;;;7.57;3.80;;;;;;;14.48;100.00;100468.47;11153431;26;20000;-31
2024/04/14 02:03:11;;;;;;;11.05;3.97;;;;;;;14.46;100.00;100475.44;11161216;26;20319;-32
2024/04/14 02:08:12;;;;;;;8.23;3.95;;;;;;;14.42;100.00;100463.09;11161195;26;19999;-32
2024/04/14 02:13:13;;;;;;;10.30;3.83;;;;;;;14.25;100.00;100478.59;11152695;26;20053;-31
2024/04/14 02:18:14;;;;;;;10.13;3.80;;;;;;;14.35;100.00;100486.66;11155704;26;19996;-32
2024/04/14 02:23:16;;;;;;;7.13;3.47;;;;;;;14.09;100.00;100491.44;11159109;26;20361;-31
2024/04/14 02:28:17;;;;;;;11.77;3.80;;;;;;;14.14;100.00;100504.66;11158326;26;20014;-32
2024/04/14 02:33:18;;;;;;;9.00;3.88;;;;;;;13.96;100.00;100510.44;11158876;26;19996;-31
2024/04/14 02:38:19;;;;;;;8.65;3.58;;;;;;;14.01;100.00;100498.28;11160155;26;20011;-31
2024/04/14 02:43:20;;;;;;;9.23;3.50;;;;;;;13.79;100.00;100501.31;11167265;26;20440;-31
2024/04/14 02:48:21;;;;;;;7.32;3.17;;;;;;;13.94;100.00;100499.88;11165613;26;19995;-32
2024/04/14 02:53:25;;;;;;;8.88;3.40;;;;;;;14.13;100.00;100503.78;11164644;26;20009;-32
2024/04/14 02:58:26;;;;;;;7.95;3.53;;;;;;;13.83;100.00;100509.31;11171144;26;20024;-32
2024/04/14 03:03:27;;;;;;;8.75;3.40;;;;;;;13.81;100.00;100507.50;11133597;26;20441;-31
2024/04/14 03:08:29;;;;;;;10.93;3.58;;;;;;;13.58;100.00;100509.66;11165511;26;20011;-32
2024/04/14 03:13:30;;;;;;;9.02;3.95;;;;;;;13.50;100.00;100511.22;11164573;26;20007;-32
2024/04/14 03:18:31;;;;;;;10.88;3.60;;;;;;;13.56;100.00;100522.72;11133560;26;20010;-32
2024/04/14 03:23:32;;;;;;;8.43;3.63;;;;;;;13.44;100.00;100519.81;11165529;26;20012;-32
2024/04/14 03:28:34;;;;;;;8.13;3.80;;;;;;;13.46;100.00;100515.50;11159719;26;20015;-32
2024/04/14 03:33:35;;;;;;;10.27;3.53;;;;;;;13.52;100.00;100518.28;11165779;26;19995;-32
2024/04/14 03:38:36;;;;;;;8.45;3.78;;;;;;;13.49;100.00;100519.94;11167147;26;19996;-32
2024/04/14 03:43:37;;;;;;;11.40;4.00;;;;;;;13.70;100.00;100529.19;11163415;26;20120;-31
2024/04/14 03:48:38;;;;;;;10.13;3.70;;;;;;;13.51;100.00;100527.00;11139697;26;20429;-32
2024/04/14 03:53:43;;;;;;;8.57;3.78;;;;;;;13.49;100.00;100533.06;11165793;26;20000;-32
2024/04/14 03:58:44;;;;;;;9.27;4.07;;;;;;;13.50;100.00;100521.72;11163036;26;19996;-32
2024/04/14 04:03:45;;;;;;;9.65;4.30;;;;;;;13.34;100.00;100521.34;11169818;26;20007;-32
2024/04/14 04:08:47;;;;;;;11.73;4.30;;;;;;;13.24;100.00;100514.09;11159353;26;20004;-34
2024/04/14 04:13:48;;;;;;;9.32;4.40;;;;;;;13.36;100.00;100518.78;11171076;26;20018;-34
2024/04/14 04:18:50;;;;;;;13.93;4.53;;;;;;;13.20;100.00;100520.13;11168890;26;20015;-33
2024/04/14 04:23:51;;;;;;;12.90;4.25;;;;;;;13.39;100.00;100530.25;11157211;26;20036;-34
2024/04/14 04:28:52;;;;;;;13.27;4.57;;;;;;;13.16;100.00;100549.75;11159830;26;20011;-32
2024/04/14 04:33:53;;;;;;;11.25;4.57;;;;;;;13.13;100.00;100552.31;11164534;26;20000;-32
2024/04/14 04:38:55;;;;;;;10.88;4.80;;;;;;;13.10;100.00;100554.84;11156818;26;20000;-32
2024/04/14 04:43:57;;;;;;;12.73;5.25;;;;;;;13.01;100.00;100545.03;11158827;26;20000;-34
2024/04/14 04:48:59;;;;;;;11.95;4.75;;;;;;;12.75;100.00;100560.13;11100215;26;19996;-34
2024/04/14 04:54:00;;;;;;;13.93;5.35;;;;;;;12.88;100.00;100545.59;11169372;26;20073;-34
2024/04/14 04:59:02;;;;;;;18.75;5.82;;;;;;;12.95;100.00;100555.38;11150544;26;20000;-33
2024/04/14 05:04:03;;;;;;;16.17;5.20;;;;;;;12.87;100.00;100560.41;11155127;26;20081;-34
2024/04/14 05:09:04;;;;;;;11.10;5.22;;;;;;;13.02;100.00;100568.69;11168205;26;20499;-33
2024/04/14 05:14:05;;;;;;;13.32;5.40;;;;;;;12.90;100.00;100575.34;11168905;26;19995;-32
2024/04/14 05:19:06;;;;;;;14.38;5.47;;;;;;;12.61;100.00;100579.84;11160930;26;19992;-32
2024/04/14 05:24:09;;;;;;;14.20;5.38;;;;;;;12.62;100.00;100587.75;11161443;26;19996;-32
2024/04/14 05:29:10;;;;;;;14.90;5.47;;;;;;;12.65;100.00;100600.94;11154412;26;20011;-32
2024/04/14 05:34:11;;;;;;;12.65;5.18;;;;;;;12.74;100.00;100611.66;11160753;26;19996;-31
2024/04/14 05:39:13;;;;;;;16.33;5.60;;;;;;;12.64;100.00;100614.91;11129399;26;19995;-32
2024/04/14 05:44:14;;;;;;;13.18;5.40;;;;;;;12.64;100.00;100614.91;11159991;26;19995;-32
2024/04/14 05:49:15;;;;;;;13.77;5.50;;;;;;;12.55;100.00;100615.53;11157329;26;19996;-32
2024/04/14 05:54:16;;;;;;;15.75;5.85;;;;;;;12.44;100.00;100619.59;11162460;26;19999;-31
2024/04/14 05:59:17;;;;;;;16.95;5.90;;;;;;;12.58;100.00;100624.34;11154849;26;20007;-32
2024/04/14 06:04:18;;;;;;;14.13;5.75;;;;;;;12.52;100.00;100625.94;11159118;26;20456;-31
2024/04/14 06:09:21;;;;;;;14.43;5.47;;;;;;;12.64;100.00;100632.38;11127929;26;20000;-32
2024/04/14 06:14:23;;;;;;;15.43;6.03;;;;;;;12.50;100.00;100632.88;11158393;26;20014;-32
2024/04/14 06:19:24;;;;;;;14.88;5.60;;;;;;;12.63;100.00;100638.47;11165009;26;19999;-32
2024/04/14 06:24:25;;;;;;;11.60;5.38;;;;;;;12.66;100.00;100642.06;11167188;26;20004;-32
2024/04/14 06:29:26;;;;;;;13.30;5.45;;;;;;;12.70;100.00;100650.91;11169384;26;20373;-32
2024/04/14 06:34:27;;;;;;;16.25;5.40;;;;;;;12.38;100.00;100650.88;11134906;26;20102;-35
2024/04/14 06:39:29;;;;;;;12.55;5.03;;;;;;;12.51;100.00;100639.91;11160295;26;20433;-32
2024/04/14 06:44:30;;;;;;;13.18;5.50;;;;;;;12.59;100.00;100641.84;11162074;26;20011;-32
2024/04/14 06:49:31;;;;;;;13.35;5.60;;;;;;;12.70;100.00;100649.16;11161888;26;20582;-31
2024/04/14 06:54:32;;;;;;;14.20;5.03;;;;;;;12.83;100.00;100662.63;11163103;26;20000;-32
2024/04/14 06:59:34;;;;;;;13.57;4.60;;;;;;;12.74;100.00;100656.25;11161837;26;20015;-33
2024/04/14 07:04:35;;;;;;;11.13;4.65;;;;;;;12.64;100.00;100662.09;11132350;26;20003;-33
2024/04/14 07:09:36;;;;;;;10.02;4.60;;;;;;;12.54;100.00;100675.81;11162658;26;20453;-32
2024/04/14 07:14:37;;;;;;;16.77;5.10;;;;;;;12.57;100.00;100661.91;11152237;26;20004;-33
2024/04/14 07:19:40;;;;;;;12.80;5.15;;;;;;;12.69;100.00;100670.13;11158802;26;19996;-33
2024/04/14 07:24:41;;;;;;;11.00;5.00;;;;;;;12.53;100.00;100677.53;11165746;26;20015;-33
2024/04/14 07:29:42;;;;;;;11.40;4.35;;;;;;;12.39;100.00;100667.50;11161460;26;20032;-33
2024/04/14 07:34:43;;;;;;;9.60;3.83;;;;;;;12.23;100.00;100668.78;11134826;26;20001;-33
2024/04/14 07:39:45;;;;;;;12.02;3.72;;;;;;;12.29;100.00;100668.97;11148750;26;20010;-33
2024/04/14 07:44:46;;;;;;;13.30;3.30;;;;;;;12.49;100.00;100674.78;11158740;26;20010;-33
2024/04/14 07:49:47;;;;;;;8.15;2.65;;;;;;;12.38;100.00;100677.09;11160405;26;19996;-32
2024/04/14 07:54:48;;;;;;;8.90;3.30;;;;;;;12.75;100.00;100689.53;11158492;26;20012;-32
2024/04/14 07:59:49;;;;;;;7.05;2.70;;;;;;;12.74;100.00;100699.97;11165209;26;20015;-33
2024/04/14 08:04:50;;;;;;;10.05;2.70;;;;;;;12.77;100.00;100702.66;11157044;26;20140;-33
2024/04/14 08:09:51;;;;;;;7.05;2.50;;;;;;;12.83;100.00;100717.69;11158798;26;20562;-32
2024/04/14 08:14:53;;;;;;;9.75;2.67;;;;;;;12.69;100.00;100712.97;11156947;26;19992;-33
2024/04/14 08:19:54;;;;;;;9.10;2.45;;;;;;;12.64;100.00;100714.53;11158403;26;20000;-33
2024/04/14 08:24:55;;;;;;;6.85;2.47;;;;;;;12.70;100.00;100717.34;11162762;26;20344;-33
2024/04/14 08:29:56;;;;;;;8.40;2.28;;;;;;;12.80;100.00;100730.72;11158352;26;19997;-32
2024/04/14 08:34:58;;;;;;;6.82;2.30;;;;;;;12.52;100.00;100738.66;11157999;26;20006;-32
2024/04/14 08:39:59;;;;;;;9.25;2.72;;;;;;;12.22;100.00;100732.53;11161027;26;20027;-33
2024/04/14 08:45:01;;;;;;;8.15;2.50;;;;;;;12.55;100.00;100735.25;11156946;26;20480;-32
2024/04/14 08:50:03;;;;;;;9.35;2.60;;;;;;;12.83;100.00;100730.81;11126026;26;20323;-32
2024/04/14 08:55:04;;;;;;;9.18;2.78;;;;;;;12.79;100.00;100732.47;11155422;26;20000;-32
2024/04/14 09:00:06;;;;;;;9.13;2.95;;;;;;;13.27;100.00;100728.56;11169324;26;20384;-32
2024/04/14 09:05:09;;;;;;;9.15;2.97;;;;;;;13.34;100.00;100736.63;10981770;26;20346;-32
2024/04/14 09:10:10;;;;;;;9.43;3.20;;;;;;;13.36;100.00;100728.81;11008361;26;20005;-32
2024/04/14 09:15:12;;;;;;;10.75;2.58;;;;;;;13.27;100.00;100724.19;10983099;26;20005;-32
2024/04/14 09:20:13;;;;;;;8.30;2.80;;;;;;;13.17;100.00;100741.41;10981625;26;20012;-32
2024/04/14 09:25:16;;;;;;;7.72;3.30;;;;;;;13.33;100.00;100724.34;11008361;26;20020;-32
2024/04/14 09:30:20;;;;;;;10.00;3.60;;;;;;;13.61;100.00;100738.19;10951699;26;20001;-32
2024/04/14 09:35:22;;;;;;;12.20;3.92;;;;;;;13.62;100.00;100732.97;11008396;26;20350;-32
2024/04/14 09:40:23;;;;;;;11.25;3.50;;;;;;;13.61;100.00;100746.97;10997293;26;20010;-32
2024/04/14 09:45:25;;;;;;;9.93;3.30;;;;;;;13.79;100.00;100746.50;11159618;26;20003;-32
2024/04/14 09:50:26;;;;;;;8.38;3.10;;;;;;;13.93;100.00;100742.50;11127760;26;19999;-32
2024/04/14 09:55:27;;;;;;;7.97;3.42;;;;;;;13.60;100.00;100739.91;11157592;26;20336;-32
2024/04/14 10:00:28;;;;;;;8.65;2.80;;;;;;;13.58;100.00;100744.25;11157406;26;20555;-32
2024/04/14 10:05:29;;;;;;;7.43;3.15;;;;;;;13.32;100.00;100734.78;11126820;26;19999;-33
2024/04/14 10:10:31;;;;;;;8.63;2.92;;;;;;;13.53;100.00;100742.34;11157741;26;20469;-33
2024/04/14 10:15:32;;;;;;;9.85;2.90;;;;;;;13.73;100.00;100751.63;11156426;26;20436;-32
2024/04/14 10:20:46;;;;;;;6.93;3.05;;;;;;;13.60;100.00;100742.53;11126915;26;20682;-31
2024/04/14 10:25:47;;;;;;;5.50;2.55;;;;;;;13.70;93.41;100736.69;11160437;26;20012;-32
2024/04/14 10:31:01;;;;;;;7.40;2.60;;;;;;;14.10;94.81;100740.25;11154634;26;20999;-32
2024/04/14 10:36:04;;;;;;;8.95;2.33;;;;;;;14.07;89.06;100745.44;11156274;26;20494;-33
2024/04/14 10:41:05;;;;;;;6.43;2.20;;;;;;;13.92;90.92;100748.63;11159909;26;20333;-33
2024/04/14 10:46:06;;;;;;;5.10;1.80;;;;;;;13.97;80.26;100727.69;11122006;26;20008;-33
2024/04/14 10:51:07;;;;;;;5.93;2.15;;;;;;;14.17;81.45;100738.66;11154696;26;19996;-32
2024/04/14 10:56:08;;;;;;;7.10;2.05;;;;;;;14.45;79.49;100739.28;11159491;26;20441;-32
2024/04/14 11:01:09;;;;;;;6.50;2.05;;;;;;;14.26;79.83;100736.25;11152995;26;20008;-33
2024/04/14 11:06:10;;;;;;;8.93;2.30;;;;;;;14.39;79.55;100733.03;11133454;26;19995;-32
2024/04/14 11:11:11;;;;;;;11.65;2.30;;;;;;;14.28;78.54;100738.94;11130771;26;20001;-32
2024/04/14 11:16:13;;;;;;;10.55;2.50;;;;;;;14.11;80.11;100734.19;11128755;26;20322;-32
2024/04/14 11:21:18;;;;;;;7.50;2.40;;;;;;;14.14;79.48;100722.81;11156271;26;19996;-32
2024/04/14 11:26:19;;;;;;;9.40;1.90;;;;;;;13.90;77.62;100734.53;11164321;26;20018;-33
2024/04/14 11:31:20;;;;;;;7.15;2.15;;;;;;;14.12;80.77;100738.56;11159627;26;20023;-33
2024/04/14 11:36:21;;;;;;;7.13;2.25;;;;;;;13.99;84.51;100722.50;11162403;26;19995;-32
2024/04/14 11:41:22;;;;;;;8.65;2.20;;;;;;;13.97;84.51;100725.06;11158450;26;19995;-32
2024/04/14 11:46:24;;;;;;;6.95;2.20;;;;;;;14.07;86.14;100736.69;11161268;26;20014;-32
2024/04/14 11:51:25;;;;;;;9.60;2.28;;;;;;;14.33;81.32;100737.25;11161682;26;20026;-32
2024/04/14 11:56:27;;;;;;;8.85;2.25;;;;;;;14.55;80.67;100720.25;11161028;26;20080;-32
2024/04/14 12:01:28;;;;;;;7.63;2.28;;;;;;;14.72;74.42;100729.41;11161713;26;20011;-32
2024/04/14 12:06:29;;;;;;;8.00;2.10;;;;;;;14.80;74.58;100722.53;11127266;26;20000;-32
2024/04/14 12:11:30;;;;;;;11.48;2.13;;;;;;;14.98;69.59;100719.38;11159968;26;20004;-32
2024/04/14 12:16:33;;;;;;;8.60;2.33;;;;;;;14.46;71.72;100725.28;11159849;26;20578;-32
2024/04/14 12:21:35;;;;;;;8.30;2.13;;;;;;;14.29;72.01;100722.28;11165029;26;19996;-32
2024/04/14 12:26:36;;;;;;;7.97;1.98;;;;;;;14.71;72.76;100716.19;11160133;26;20468;-32
2024/04/14 12:31:37;;;;;;;9.68;2.25;;;;;;;14.70;67.35;100719.69;11159993;26;20010;-32
2024/04/14 12:36:39;;;;;;;8.95;2.10;;;;;;;14.33;68.70;100717.13;11158825;26;20008;-32
2024/04/14 12:41:40;;;;;;;8.95;2.30;;;;;;;14.34;71.07;100713.66;11126859;26;20011;-32
2024/04/14 12:46:42;;;;;;;8.73;2.50;;;;;;;14.51;70.00;100695.63;11159893;26;20054;-32
2024/04/14 12:51:43;;;;;;;7.60;2.65;;;;;;;14.51;67.24;100690.38;11160338;26;20057;-33
2024/04/14 12:56:44;;;;;;;8.80;2.50;;;;;;;14.59;66.74;100686.16;11158344;26;20004;-32
2024/04/14 13:01:45;;;;;;;6.53;2.05;;;;;;;14.67;64.05;100667.91;11162217;26;20012;-32
2024/04/14 13:06:47;;;;;;;7.70;2.30;;;;;;;14.69;60.63;100673.19;11155972;26;20036;-32
2024/04/14 13:11:48;;;;;;;7.03;1.90;;;;;;;14.71;59.71;100672.34;11157370;26;20005;-33
2024/04/14 13:16:49;;;;;;;8.93;2.10;;;;;;;15.06;61.00;100661.59;11159602;26;20353;-32
2024/04/14 13:21:50;;;;;;;7.63;2.05;;;;;;;14.79;60.79;100656.72;11128210;26;20382;-32
2024/04/14 13:26:51;;;;;;;6.85;1.90;;;;;;;14.88;58.23;100658.66;11156563;26;19996;-32
2024/04/14 13:31:53;;;;;;;7.50;2.10;;;;;;;14.11;57.85;100646.53;11160628;26;20032;-32
2024/04/14 13:36:55;;;;;;;6.10;1.80;;;;;;;14.45;57.65;100642.88;11156446;26;20000;-32
2024/04/14 13:41:57;;;;;;;5.85;1.88;;;;;;;14.60;55.89;100642.31;11162353;26;20027;-32
2024/04/14 13:46:58;;;;;;;5.45;2.40;;;;;;;14.48;55.26;100649.94;11122385;26;20007;-32
2024/04/14 13:51:59;;;;;;;5.93;1.83;;;;;;;14.52;53.19;100634.28;11155306;26;19996;-32
2024/04/14 13:57:00;;;;;;;5.00;1.92;;;;;;;14.82;51.08;100625.22;11161451;26;19995;-36
2024/04/14 14:02:02;;;;;;;5.18;1.85;;;;;;;14.83;53.17;100614.69;11159461;26;20346;-33
2024/04/14 14:07:03;;;;;;;4.57;1.90;;;;;;;14.76;52.10;100638.25;11160474;26;20010;-33
2024/04/14 14:12:05;;;;;;;5.13;1.88;;;;;;;14.94;50.96;100621.91;11155622;26;20041;-32
2024/04/14 14:17:06;;;;;;;6.97;2.05;;;;;;;14.71;50.91;100611.84;11154892;26;20016;-33
2024/04/14 14:22:07;;;;;;;7.32;1.92;;;;;;;14.78;52.75;100612.84;11159516;26;19995;-32
2024/04/14 14:27:08;;;;;;;5.53;1.70;;;;;;;14.66;48.26;100603.00;11155093;26;20015;-32
2024/04/14 14:32:09;;;;;;;9.55;1.95;;;;;;;14.90;49.86;100606.91;11155080;26;19992;-33
2024/04/14 14:37:11;;;;;;;6.28;1.90;;;;;;;15.12;48.64;100605.56;11158520;26;19995;-32
2024/04/14 14:42:12;;;;;;;8.48;2.20;;;;;;;14.95;48.73;100603.50;11156747;26;21705;-32
2024/04/14 14:47:13;;;;;;;6.72;2.00;;;;;;;14.90;48.40;100588.50;11138782;26;20009;-32
2024/04/14 14:52:14;;;;;;;6.20;2.22;;;;;;;15.07;50.10;100589.69;11169681;26;20004;-32
2024/04/14 14:57:15;;;;;;;7.38;2.20;;;;;;;14.79;48.56;100578.69;11161017;26;19996;-32
2024/04/14 15:02:16;;;;;;;9.25;2.13;;;;;;;14.62;50.46;100585.38;11163447;26;20349;-33
2024/04/14 15:07:18;;;;;;;6.78;2.15;;;;;;;14.81;51.37;100584.88;11163451;26;20000;-33
2024/04/14 15:12:19;;;;;;;6.63;2.33;;;;;;;14.71;50.83;100582.91;11161668;26;20019;-33
2024/04/14 15:17:20;;;;;;;5.63;2.20;;;;;;;14.71;50.35;100582.00;11163077;26;20011;-33
2024/04/14 15:22:22;;;;;;;4.82;2.25;;;;;;;14.78;51.12;100576.00;11162623;26;20000;-33
2024/04/14 15:27:23;;;;;;;8.13;2.10;;;;;;;14.39;52.58;100570.00;11160232;26;20010;-32
2024/04/14 15:32:24;;;;;;;7.97;2.20;;;;;;;14.37;52.67;100563.84;11161819;26;20415;-33
2024/04/14 15:37:26;;;;;;;8.43;2.30;;;;;;;14.45;51.26;100558.72;11162108;26;20004;-32
2024/04/14 15:42:27;;;;;;;7.22;2.00;;;;;;;14.57;51.52;100548.47;11161227;26;20014;-32
2024/04/14 15:47:28;;;;;;;7.82;2.00;;;;;;;14.62;51.73;100548.56;11161850;26;20356;-33
2024/04/14 15:52:29;;;;;;;6.60;1.92;;;;;;;14.53;50.43;100544.00;11156259;26;20004;-32
2024/04/14 15:57:32;;;;;;;6.47;1.90;;;;;;;14.55;50.57;100539.63;11165821;26;20015;-32
2024/04/14 16:02:33;;;;;;;6.28;2.10;;;;;;;14.75;51.88;100539.13;11160849;26;20012;-33
2024/04/14 16:07:35;;;;;;;6.90;2.30;;;;;;;14.69;51.97;100539.91;11160829;26;20005;-33
2024/04/14 16:12:36;;;;;;;7.28;2.17;;;;;;;14.34;51.93;100531.34;11153108;26;20072;-33
2024/04/14 16:17:37;;;;;;;7.63;2.25;;;;;;;13.99;52.45;100520.16;11163186;26;20070;-34
2024/04/14 16:22:39;;;;;;;5.00;1.92;;;;;;;13.94;52.49;100520.03;11148383;26;20515;-34
2024/04/14 16:27:40;;;;;;;4.07;1.70;;;;;;;13.81;52.04;100513.63;11152415;26;20022;-34
2024/04/14 16:32:42;;;;;;;5.68;1.80;;;;;;;13.81;51.92;100518.00;11128512;26;20000;-35
2024/04/14 16:37:43;;;;;;;7.13;2.08;;;;;;;13.75;50.72;100515.25;11160299;26;20338;-33
2024/04/14 16:42:44;;;;;;;4.97;1.80;;;;;;;13.57;50.23;100503.47;11159031;26;20000;-33
2024/04/14 16:47:45;;;;;;;4.57;1.40;;;;;;;13.54;52.10;100487.69;11150927;26;20004;-34
2024/04/14 16:52:47;;;;;;;6.88;1.60;;;;;;;13.57;50.91;100490.34;11157615;26;20022;-35
2024/04/14 16:57:48;;;;;;;6.82;1.80;;;;;;;13.57;50.53;100490.34;11132489;26;20446;-35
2024/04/14 17:02:50;;;;;;;6.70;1.40;;;;;;;13.45;50.87;100487.50;11152260;26;20009;-32
2024/04/14 17:07:51;;;;;;;4.50;1.52;;;;;;;13.40;53.05;100483.88;11158640;26;20016;-33
2024/04/14 17:12:52;;;;;;;4.22;1.75;;;;;;;13.23;56.31;100486.09;11163413;26;20000;-35
2024/04/14 17:17:53;;;;;;;5.97;1.67;;;;;;;13.15;57.33;100477.13;11156864;26;20004;-33
2024/04/14 17:22:54;;;;;;;7.07;2.00;;;;;;;13.04;60.14;100484.78;11163029;26;20003;-35
2024/04/14 17:27:55;;;;;;;7.30;2.00;;;;;;;12.97;62.48;100473.25;11156902;26;20337;-35
2024/04/14 17:32:57;;;;;;;9.07;2.33;;;;;;;12.87;63.67;100465.09;11150581;26;20412;-33
2024/04/14 17:37:58;;;;;;;6.07;1.90;;;;;;;12.81;65.10;100460.59;11165189;26;20006;-35
2024/04/14 17:42:59;;;;;;;6.63;1.85;;;;;;;12.88;67.11;100440.66;11150853;26;20007;-34
2024/04/14 17:48:02;;;;;;;9.75;1.80;;;;;;;12.81;65.12;100430.88;11114163;26;20445;-33
2024/04/14 17:53:04;;;;;;;5.05;1.80;;;;;;;12.74;64.86;100443.81;11162111;26;19999;-33
2024/04/14 17:58:05;;;;;;;10.05;1.88;;;;;;;12.61;66.43;100433.00;11152673;26;20004;-33
2024/04/14 18:03:06;;;;;;;5.53;1.70;;;;;;;12.49;67.81;100437.09;11159735;26;20031;-34
2024/04/14 18:08:07;;;;;;;5.35;1.98;;;;;;;12.51;66.86;100422.31;11156669;26;20459;-34
2024/04/14 18:13:08;;;;;;;7.18;2.20;;;;;;;12.47;67.99;100419.56;11158747;26;20078;-34
2024/04/14 18:18:10;;;;;;;6.68;1.95;;;;;;;12.37;68.29;100400.13;11152426;26;20351;-33
2024/04/14 18:23:11;;;;;;;7.72;2.08;;;;;;;12.31;67.86;100405.19;11155936;26;20011;-33
2024/04/14 18:28:12;;;;;;;7.68;2.08;;;;;;;12.29;67.97;100389.41;11159128;26;20390;-34
2024/04/14 18:33:13;;;;;;;5.80;1.75;;;;;;;12.30;67.99;100385.06;11121506;26;19999;-34
2024/04/14 18:38:14;;;;;;;6.45;1.92;;;;;;;12.29;68.44;100389.41;11130774;26;20329;-33
2024/04/14 18:43:16;;;;;;;6.13;1.70;;;;;;;12.25;69.89;100390.19;11157139;26;20000;-34
2024/04/14 18:48:17;;;;;;;6.13;1.60;;;;;;;12.18;70.35;100382.13;11149128;26;20012;-33
2024/04/14 18:53:18;;;;;;;6.70;1.55;;;;;;;12.18;71.36;100377.81;11158277;26;20484;-33
2024/04/14 18:58:19;;;;;;;6.07;1.60;;;;;;;12.06;71.11;100378.38;11156292;26;20441;-34
2024/04/14 19:03:20;;;;;;;5.57;1.55;;;;;;;12.18;72.47;100377.81;11155397;26;19999;-34
2024/04/14 19:08:21;;;;;;;9.07;1.70;;;;;;;12.14;71.81;100373.31;11156163;26;20010;-34
2024/04/14 19:13:23;;;;;;;4.28;1.40;;;;;;;12.30;74.16;100374.59;11157075;26;20340;-33
2024/04/14 19:18:24;;;;;;;6.10;2.00;;;;;;;12.15;72.38;100358.50;11155261;26;20007;-33
2024/04/14 19:23:25;;;;;;;8.63;2.35;;;;;;;12.21;72.26;100356.00;11159314;26;20445;-33
2024/04/14 19:28:29;;;;;;;7.57;2.00;;;;;;;12.13;71.86;100361.06;11162418;26;20010;-33
2024/04/14 19:33:30;;;;;;;6.72;2.15;;;;;;;12.31;75.30;100355.41;11157466;26;20010;-33
2024/04/14 19:38:34;;;;;;;6.43;1.92;;;;;;;12.46;75.74;100342.69;11166489;26;20068;-33
2024/04/14 19:43:35;;;;;;;6.75;2.13;;;;;;;12.53;75.64;100344.59;11113960;26;20076;-34
2024/04/14 19:48:37;;;;;;;6.50;1.95;;;;;;;12.27;74.72;100328.25;11160499;26;20000;-33
2024/04/14 19:53:38;;;;;;;6.22;1.90;;;;;;;12.32;77.45;100313.50;11160391;26;20490;-34
2024/04/14 19:58:39;;;;;;;8.20;2.50;;;;;;;12.46;78.66;100292.88;11162331;26;20077;-34
2024/04/14 20:03:40;;;;;;;8.60;2.95;;;;;;;12.22;77.96;100289.69;11162329;26;20012;-34
2024/04/14 20:08:41;;;;;;;7.45;2.42;;;;;;;12.18;79.13;100287.81;11160831;26;20000;-34
2024/04/14 20:13:43;;;;;;;8.27;1.98;;;;;;;12.00;76.90;100286.53;11160111;26;20000;-34
2024/04/14 20:18:44;;;;;;;6.70;1.73;;;;;;;11.83;76.81;100286.09;11153530;26;20007;-35
2024/04/14 20:23:47;;;;;;;8.40;1.90;;;;;;;11.81;78.90;100281.66;11159273;26;20003;-34
2024/04/14 20:28:48;;;;;;;5.35;2.00;;;;;;;11.88;80.24;100270.50;11159782;26;20004;-34
2024/04/14 20:33:49;;;;;;;6.53;2.13;;;;;;;11.86;83.69;100248.63;11153397;26;20345;-34
2024/04/14 20:38:52;;;;;;;5.93;1.90;;;;;;;11.79;79.15;100265.88;11163077;26;20037;-35
2024/04/14 20:43:53;;;;;;;9.73;2.03;;;;;;;11.75;78.62;100247.47;11162011;26;20497;-35
2024/04/14 20:48:54;;;;;;;6.18;2.00;;;;;;;11.72;78.94;100257.84;11154338;26;20426;-34
2024/04/14 20:53:57;;;;;;;7.60;2.13;;;;;;;11.50;79.44;100274.75;11130968;26;19995;-35
2024/04/14 20:58:58;;;;;;;8.10;2.17;;;;;;;11.58;78.51;100279.34;11151375;26;20007;-33
2024/04/14 21:03:59;;;;;;;7.43;2.30;;;;;;;11.53;81.38;100282.66;11154118;26;20008;-33
2024/04/14 21:09:00;;;;;;;4.78;1.90;;;;;;;11.34;80.48;100279.56;11164546;26;20315;-33
2024/04/14 21:14:01;;;;;;;9.77;2.15;;;;;;;11.42;80.78;100256.22;11150934;26;19996;-33
2024/04/14 21:19:03;;;;;;;6.85;2.05;;;;;;;11.66;83.69;100250.72;11128503;26;20005;-34
2024/04/14 21:24:04;;;;;;;8.45;2.15;;;;;;;11.53;82.95;100239.06;11155989;26;20045;-33
2024/04/14 21:29:05;;;;;;;5.70;2.03;;;;;;;11.59;83.78;100233.97;11125688;26;20438;-33
2024/04/14 21:34:06;;;;;;;11.45;2.40;;;;;;;11.23;83.24;100228.69;11157352;26;20011;-35
2024/04/14 21:39:08;;;;;;;6.18;2.22;;;;;;;11.18;81.01;100225.06;11152638;26;20018;-33
2024/04/14 21:44:09;;;;;;;8.90;2.25;;;;;;;11.29;84.28;100221.00;11122093;26;20539;-33
2024/04/14 21:49:11;;;;;;;6.32;2.00;;;;;;;11.46;84.81;100220.56;11158330;26;20000;-33
2024/04/14 21:54:12;;;;;;;8.38;2.35;;;;;;;11.42;85.05;100221.28;11172327;26;20003;-33
2024/04/14 21:59:13;;;;;;;5.72;2.03;;;;;;;11.19;83.52;100208.50;11154487;26;20000;-33
2024/04/14 22:04:14;;;;;;;8.60;2.42;;;;;;;11.28;84.56;100215.72;11160561;26;20357;-33
2024/04/14 22:09:15;;;;;;;7.50;2.40;;;;;;;11.48;88.81;100211.00;11158078;26;19992;-34
2024/04/14 22:14:18;;;;;;;9.55;2.28;;;;;;;11.61;89.98;100194.78;11164457;26;20006;-33
2024/04/14 22:19:19;;;;;;;8.38;2.40;;;;;;;11.55;92.79;100192.00;11158354;26;20456;-33
2024/04/14 22:24:20;;;;;;;5.80;2.35;;;;;;;11.53;94.44;100183.22;11150811;26;20449;-34
2024/04/14 22:29:21;;;;;;;6.25;2.00;;;;;;;11.46;88.74;100176.06;11156515;26;19996;-33
2024/04/14 22:34:22;;;;;;;8.95;2.28;;;;;;;11.44;94.35;100188.22;11155667;26;20000;-33
2024/04/14 22:39:24;;;;;;;6.28;2.00;;;;;;;11.45;98.56;100193.50;11125734;26;20096;-33
2024/04/14 22:44:25;;;;;;;10.88;2.40;;;;;;;11.21;100.00;100200.72;11155912;26;19995;-33
2024/04/14 22:49:26;;;;;;;6.63;2.28;;;;;;;11.21;100.00;100193.75;11161051;26;19993;-33
2024/04/14 22:54:27;;;;;;;7.07;2.83;;;;;;;11.26;100.00;100165.97;11155525;26;19995;-33